Time;durP1;ratioP1;P1;durP2;ratioP2;P2;SDS_P1;SDS_P2;PMS_P1;PMS_P2;Temp;Humidity;BMP_temperature;BMP_pressure;BME280_temperature;BME280_humidity;BME280_pressure;Samples;Min_cycle;Max_cycle;Signal;HPM_P1;HPM_P2
2022/11/22 00:00:09;;;;;;;49.43;32.10;;;;;;;6.73;69.69;97795.34;2243249;79;20935;-80
2022/11/22 00:03:06;;;;;;;49.53;31.13;;;;;;;6.91;68.77;97794.65;2246200;79;20900;-80
2022/11/22 00:06:06;;;;;;;56.87;32.53;;;;;;;6.96;68.54;97800.36;2246137;79;20987;-80
2022/11/22 00:09:07;;;;;;;45.47;30.37;;;;;;;6.99;69.02;97802.98;2246199;79;20943;-79
2022/11/22 00:12:07;;;;;;;47.13;30.07;;;;;;;7.01;67.58;97801.70;2246066;79;20935;-80
2022/11/22 00:15:08;;;;;;;47.33;29.97;;;;;;;6.83;67.97;97804.95;2246152;79;20940;-80
2022/11/22 00:18:08;;;;;;;48.97;30.73;;;;;;;6.82;68.73;97803.64;2246023;79;20944;-81
2022/11/22 00:21:09;;;;;;;45.50;30.43;;;;;;;6.75;67.98;97801.41;2246306;79;20897;-80
2022/11/22 00:24:09;;;;;;;52.80;30.60;;;;;;;6.69;68.75;97810.42;2245929;79;21316;-80
2022/11/22 00:27:09;;;;;;;46.73;31.40;;;;;;;6.78;69.09;97817.00;2246116;79;20902;-80
2022/11/22 00:30:10;;;;;;;53.30;34.17;;;;;;;6.81;69.03;97806.66;2246257;79;20936;-80
2022/11/22 00:33:10;;;;;;;53.50;33.40;;;;;;;6.94;69.44;97799.90;2245581;79;21335;-79
2022/11/22 00:36:11;;;;;;;55.47;34.93;;;;;;;6.92;68.89;97800.28;2245984;79;20983;-79
2022/11/22 00:39:11;;;;;;;74.17;43.00;;;;;;;6.80;68.48;97810.11;2246014;79;20873;-80
2022/11/22 00:42:11;;;;;;;91.70;56.73;;;;;;;6.64;68.22;97812.09;2245999;79;20881;-80
2022/11/22 00:45:12;;;;;;;78.47;49.07;;;;;;;6.60;69.05;97821.56;2245659;79;20889;-80
2022/11/22 00:48:12;;;;;;;71.27;45.93;;;;;;;6.58;68.78;97823.70;2245293;79;21352;-80
2022/11/22 00:51:13;;;;;;;67.73;39.37;;;;;;;6.48;68.54;97818.84;2245125;79;20971;-80
2022/11/22 00:54:13;;;;;;;66.77;41.27;;;;;;;6.43;69.35;97827.41;2244956;79;20955;-80
2022/11/22 00:57:13;;;;;;;56.27;35.00;;;;;;;6.51;69.51;97829.67;2245359;79;20995;-80
2022/11/22 01:00:14;;;;;;;55.00;34.73;;;;;;;6.57;69.67;97826.72;2245194;79;21336;-81
2022/11/22 01:03:14;;;;;;;53.53;33.93;;;;;;;6.62;69.27;97826.77;2246024;79;20937;-80
2022/11/22 01:06:15;;;;;;;71.00;41.93;;;;;;;6.58;69.26;97832.34;2246022;79;20952;-78
2022/11/22 01:09:15;;;;;;;72.47;44.53;;;;;;;6.54;69.18;97837.48;2245813;79;20943;-80
2022/11/22 01:12:15;;;;;;;84.33;47.33;;;;;;;6.64;70.05;97835.44;2245939;79;20971;-81
2022/11/22 01:15:16;;;;;;;78.03;43.70;;;;;;;6.86;70.36;97836.11;2245756;79;21225;-81
2022/11/22 01:18:16;;;;;;;62.80;37.43;;;;;;;7.06;70.45;97826.39;2245939;79;20996;-81
2022/11/22 01:21:17;;;;;;;72.93;39.80;;;;;;;7.17;69.23;97827.36;2246090;79;20988;-80
2022/11/22 01:24:17;;;;;;;65.87;39.50;;;;;;;7.06;69.63;97828.55;2246113;79;20947;-80
2022/11/22 01:27:18;;;;;;;74.00;41.27;;;;;;;7.15;69.59;97826.47;2245985;79;20900;-79
2022/11/22 01:30:18;;;;;;;72.60;40.67;;;;;;;7.18;69.57;97829.09;2245917;79;20880;-81
2022/11/22 01:33:18;;;;;;;93.30;45.17;;;;;;;7.20;69.22;97839.06;2246240;79;20940;-81
2022/11/22 01:36:21;;;;;;;93.60;48.57;;;;;;;7.17;69.36;97845.52;2246099;79;20976;-81
2022/11/22 01:39:22;;;;;;;95.73;49.20;;;;;;;7.02;69.19;97853.60;2246087;79;20957;-80
2022/11/22 01:42:22;;;;;;;98.83;48.13;;;;;;;7.01;69.34;97849.70;2246003;79;20940;-80
2022/11/22 01:45:23;;;;;;;76.30;40.10;;;;;;;6.85;69.18;97852.95;2246308;79;21118;-80
2022/11/22 01:48:23;;;;;;;77.90;41.30;;;;;;;7.24;72.62;97843.00;2246306;79;20912;-80
2022/11/22 01:51:23;;;;;;;77.23;41.23;;;;;;;7.44;68.92;97844.46;2245971;79;21252;-80
2022/11/22 01:54:24;;;;;;;88.17;46.77;;;;;;;7.20;68.59;97844.25;2246626;79;20987;-80
2022/11/22 01:57:28;;;;;;;80.53;44.50;;;;;;;6.95;68.49;97842.72;2248996;79;20940;-80
2022/11/22 02:00:28;;;;;;;72.45;38.83;;;;;;;6.88;69.00;97838.29;2248922;79;20972;-80
2022/11/22 02:03:29;;;;;;;58.27;33.67;;;;;;;6.73;69.12;97843.31;2248918;79;21268;-80
2022/11/22 02:06:29;;;;;;;62.03;36.00;;;;;;;6.63;69.47;97850.55;2248966;79;20995;-80
2022/11/22 02:09:30;;;;;;;67.70;38.37;;;;;;;6.65;70.02;97847.12;2248862;79;20888;-80
2022/11/22 02:12:30;;;;;;;61.53;35.77;;;;;;;6.79;69.77;97845.11;2249103;79;20936;-81
2022/11/22 02:15:30;;;;;;;65.43;36.50;;;;;;;6.62;68.92;97842.33;2248820;79;20941;-82
2022/11/22 02:18:31;;;;;;;71.73;39.17;;;;;;;7.18;80.54;97837.75;2248670;79;20893;-83
2022/11/22 02:21:31;;;;;;;64.20;38.97;;;;;;;10.55;81.20;97830.09;2248757;79;20920;-81
2022/11/22 02:24:32;;;;;;;62.17;35.57;;;;;;;10.58;64.34;97834.86;2248902;79;20936;-81
2022/11/22 02:27:32;;;;;;;55.83;35.73;;;;;;;8.92;61.93;97838.41;2248715;79;21296;-80
2022/11/22 02:30:32;;;;;;;60.80;35.20;;;;;;;7.63;62.77;97845.05;2248876;79;20912;-80
2022/11/22 02:33:33;;;;;;;59.93;34.77;;;;;;;6.69;64.01;97848.03;2249010;79;20964;-80
2022/11/22 02:36:33;;;;;;;65.30;36.80;;;;;;;6.01;65.57;97848.01;2248924;79;20991;-80
2022/11/22 02:39:34;;;;;;;58.73;35.40;;;;;;;5.50;66.79;97850.66;2248994;79;20857;-80
2022/11/22 02:42:34;;;;;;;58.63;34.17;;;;;;;5.04;68.05;97846.86;2249017;79;20932;-80
2022/11/22 02:45:34;;;;;;;66.90;37.97;;;;;;;4.70;69.22;97840.20;2249130;79;21308;-80
2022/11/22 02:48:35;;;;;;;64.57;36.17;;;;;;;4.45;70.24;97839.28;2248812;79;20940;-80
2022/11/22 02:51:38;;;;;;;72.73;39.23;;;;;;;4.21;71.02;97838.76;2248829;79;20964;-80
2022/11/22 02:54:38;;;;;;;75.73;42.63;;;;;;;4.02;72.14;97838.79;2247468;79;20916;-80
2022/11/22 02:57:39;;;;;;;63.07;37.67;;;;;;;3.86;73.06;97835.42;2245342;79;20929;-81
2022/11/22 03:00:39;;;;;;;70.87;39.50;;;;;;;3.64;73.86;97832.37;2245598;79;20925;-80
2022/11/22 03:03:40;;;;;;;64.90;39.13;;;;;;;3.47;74.32;97824.66;2245529;79;20939;-80
2022/11/22 03:06:40;;;;;;;62.77;37.73;;;;;;;3.35;74.87;97825.62;2245441;79;20936;-80
2022/11/22 03:09:41;;;;;;;68.90;39.00;;;;;;;3.29;75.53;97829.34;2245452;79;20904;-80
2022/11/22 03:12:41;;;;;;;67.20;38.73;;;;;;;3.22;75.92;97828.33;2245518;79;20952;-79
2022/11/22 03:15:41;;;;;;;72.03;39.30;;;;;;;3.18;76.39;97826.09;2245597;79;20939;-78
2022/11/22 03:18:42;;;;;;;66.27;39.80;;;;;;;3.15;76.85;97824.73;2245889;79;20932;-80
2022/11/22 03:21:42;;;;;;;68.50;38.93;;;;;;;3.14;77.29;97827.27;2245841;79;20925;-81
2022/11/22 03:24:43;;;;;;;71.23;40.07;;;;;;;3.14;77.59;97832.02;2246066;79;20920;-81
2022/11/22 03:27:43;;;;;;;70.80;39.27;;;;;;;3.11;77.69;97837.52;2245998;79;20912;-80
2022/11/22 03:30:43;;;;;;;69.47;38.83;;;;;;;3.08;77.86;97829.28;2246163;79;20873;-80
2022/11/22 03:33:44;;;;;;;75.53;40.13;;;;;;;3.08;78.31;97825.41;2246303;79;20912;-80
2022/11/22 03:36:44;;;;;;;76.17;41.80;;;;;;;3.08;78.39;97819.39;2246316;79;20964;-81
2022/11/22 03:39:45;;;;;;;74.43;43.80;;;;;;;3.06;78.57;97819.34;2246036;79;20908;-82
2022/11/22 03:42:45;;;;;;;78.83;43.77;;;;;;;3.00;78.86;97809.30;2246492;79;20905;-80
2022/11/22 03:45:46;;;;;;;75.17;41.17;;;;;;;2.97;79.10;97810.52;2246472;79;20904;-81
2022/11/22 03:48:46;;;;;;;67.87;38.87;;;;;;;2.91;79.39;97812.52;2246851;79;20884;-81
2022/11/22 03:51:46;;;;;;;71.73;40.03;;;;;;;2.84;79.46;97810.62;2246328;79;21344;-80
2022/11/22 03:54:47;;;;;;;88.67;40.87;;;;;;;2.75;79.80;97806.52;2246355;79;20987;-80
2022/11/22 03:57:47;;;;;;;67.73;38.00;;;;;;;2.70;80.23;97805.11;2247048;79;20904;-79
2022/11/22 04:00:50;;;;;;;68.10;37.83;;;;;;;2.66;80.24;97815.30;2246409;79;21262;-80
2022/11/22 04:03:51;;;;;;;66.53;37.03;;;;;;;2.54;80.53;97815.41;2246649;79;20900;-81
2022/11/22 04:06:51;;;;;;;62.70;37.20;;;;;;;2.48;80.74;97819.52;2246339;79;20969;-81
2022/11/22 04:09:54;;;;;;;61.70;36.37;;;;;;;2.45;81.09;97822.88;2246728;79;21395;-81
2022/11/22 04:12:55;;;;;;;64.63;37.57;;;;;;;2.40;81.18;97823.59;2246805;79;20936;-81
2022/11/22 04:15:55;;;;;;;63.67;37.03;;;;;;;2.32;81.29;97828.53;2246791;79;20897;-82
2022/11/22 04:18:56;;;;;;;68.77;38.33;;;;;;;2.26;81.67;97819.77;2247025;79;20865;-81
2022/11/22 04:21:56;;;;;;;62.13;36.80;;;;;;;2.19;81.43;97828.60;2246694;79;20885;-81
2022/11/22 04:25:14;;;;;;;64.37;35.80;;;;;;;2.10;81.80;97819.75;2246391;79;21233;-81
2022/11/22 04:28:15;;;;;;;65.50;37.03;;;;;;;2.05;82.21;97816.17;2245723;79;20872;-80
2022/11/22 04:34:34;;;;;;;65.73;37.10;;;;;;;1.99;82.58;97808.27;2246072;79;20896;-79
2022/11/22 04:37:34;;;;;;;65.53;36.40;;;;;;;1.97;83.40;97804.36;2246276;79;20983;-79
2022/11/22 04:40:35;;;;;;;81.83;37.20;;;;;;;2.00;83.41;97807.44;2246143;79;20897;-79
2022/11/22 04:46:54;;;;;;;63.20;37.43;;;;;;;2.05;83.81;97804.17;2245025;79;20940;-81
2022/11/22 04:49:54;;;;;;;65.10;38.63;;;;;;;2.05;83.85;97795.16;2245162;79;21091;-82
2022/11/22 04:52:55;;;;;;;64.27;37.60;;;;;;;2.05;83.94;97794.29;2245586;79;20959;-82
2022/11/22 04:55:55;;;;;;;61.87;37.80;;;;;;;2.06;83.87;97799.89;2240896;79;20979;-81
2022/11/22 04:58:55;;;;;;;66.40;37.20;;;;;;;2.05;84.12;97799.44;2237863;79;20964;-81
2022/11/22 05:01:56;;;;;;;64.07;37.20;;;;;;;2.10;84.50;97801.72;2237856;80;20893;-81
2022/11/22 05:04:56;;;;;;;63.57;38.03;;;;;;;2.17;84.62;97798.08;2237953;80;20909;-81
2022/11/22 05:07:57;;;;;;;71.47;38.63;;;;;;;2.23;84.46;97802.52;2238095;79;20961;-80
2022/11/22 05:10:58;;;;;;;92.47;37.30;;;;;;;2.22;84.31;97791.77;2237762;79;20956;-81
2022/11/22 05:13:58;;;;;;;63.83;35.73;;;;;;;2.21;84.21;97799.03;2237393;79;20956;-80
2022/11/22 05:16:58;;;;;;;69.43;39.00;;;;;;;2.22;84.17;97800.78;2238029;80;20904;-82
2022/11/22 05:19:58;;;;;;;62.67;37.73;;;;;;;2.23;84.60;97806.39;2237816;79;20866;-80
2022/11/22 05:26:17;;;;;;;64.93;39.23;;;;;;;2.30;85.11;97811.29;2236099;79;20948;-80
2022/11/22 05:29:18;;;;;;;66.60;39.10;;;;;;;2.34;85.28;97814.41;2236471;79;20917;-81
2022/11/22 05:32:18;;;;;;;70.00;38.33;;;;;;;2.37;85.35;97821.80;2236757;79;21324;-80
2022/11/22 05:35:19;;;;;;;73.07;42.87;;;;;;;2.43;85.41;97833.56;2236879;79;20897;-81
2022/11/22 05:38:19;;;;;;;82.63;41.77;;;;;;;2.47;85.46;97838.38;2238059;79;20967;-80
2022/11/22 05:41:20;;;;;;;71.80;42.13;;;;;;;2.50;85.57;97843.20;2237838;79;20905;-82
2022/11/22 05:44:20;;;;;;;71.87;42.10;;;;;;;2.55;85.48;97842.03;2236492;79;21340;-82
2022/11/22 05:47:23;;;;;;;67.80;40.07;;;;;;;2.60;85.53;97837.00;2237220;79;20897;-80
2022/11/22 05:50:23;;;;;;;77.67;43.60;;;;;;;2.64;85.49;97839.73;2241313;79;20964;-81
2022/11/22 05:53:23;;;;;;;75.87;43.67;;;;;;;2.68;85.37;97838.12;2235983;79;20905;-82
2022/11/22 05:56:24;;;;;;;75.00;43.63;;;;;;;2.70;85.43;97836.45;2238137;79;20928;-83
2022/11/22 05:59:24;;;;;;;77.90;43.80;;;;;;;2.72;85.44;97833.08;2240458;79;20937;-84
2022/11/22 06:02:24;;;;;;;71.93;42.30;;;;;;;2.70;85.33;97837.74;2240850;79;21300;-84
2022/11/22 06:05:25;;;;;;;73.73;43.57;;;;;;;2.69;85.46;97839.86;2240679;79;20889;-86
2022/11/22 06:08:25;;;;;;;79.77;44.00;;;;;;;2.65;85.77;97827.31;2241494;79;20965;-85
2022/11/22 06:11:26;;;;;;;77.27;42.37;;;;;;;2.65;85.77;97827.31;2241472;79;20987;-85
2022/11/22 06:14:26;;;;;;;78.13;45.07;;;;;;;2.60;86.09;97831.85;2240445;79;20889;-84
2022/11/22 06:17:26;;;;;;;75.47;43.73;;;;;;;2.60;86.09;97831.85;2240250;79;20932;-83
2022/11/22 06:20:27;;;;;;;79.80;42.90;;;;;;;2.56;86.04;97833.48;2239998;79;20909;-83
2022/11/22 06:23:27;;;;;;;80.87;44.87;;;;;;;2.51;86.28;97834.64;2239808;79;20901;-82
2022/11/22 06:26:28;;;;;;;80.50;44.73;;;;;;;2.52;86.32;97844.53;2239892;79;20977;-85
2022/11/22 06:29:31;;;;;;;86.93;46.53;;;;;;;2.55;86.40;97851.05;2239805;79;20992;-84
2022/11/22 06:32:32;;;;;;;78.63;45.23;;;;;;;2.60;86.53;97845.64;2240371;79;20971;-86
2022/11/22 06:35:32;;;;;;;81.40;45.20;;;;;;;2.64;86.36;97846.59;2240099;79;20865;-83
2022/11/22 06:38:33;;;;;;;79.47;44.27;;;;;;;2.65;86.25;97850.50;2239130;79;21094;-83
2022/11/22 06:41:34;;;;;;;81.33;45.60;;;;;;;2.64;86.42;97842.73;2240157;79;21125;-83
2022/11/22 06:44:34;;;;;;;78.97;46.00;;;;;;;2.61;86.76;97843.94;2239310;79;20925;-85
2022/11/22 06:47:34;;;;;;;91.27;48.23;;;;;;;2.61;86.76;97843.94;2240383;79;20897;-83
2022/11/22 06:50:35;;;;;;;82.87;46.00;;;;;;;2.56;86.69;97838.63;2239962;79;21564;-83
2022/11/22 06:53:35;;;;;;;86.13;48.33;;;;;;;2.54;86.90;97848.02;2238902;79;20945;-81
2022/11/22 06:56:36;;;;;;;109.67;56.43;;;;;;;2.54;87.10;97851.47;2244025;79;20979;-82
2022/11/22 06:59:36;;;;;;;87.73;47.50;;;;;;;3.79;100.00;97843.03;2246660;79;21347;-82
2022/11/22 07:02:36;;;;;;;92.33;48.77;;;;;;;6.80;97.27;97843.83;2247186;79;20955;-82
2022/11/22 07:05:37;;;;;;;90.90;45.83;;;;;;;5.88;81.77;97839.59;2246835;79;21311;-82
2022/11/22 07:08:37;;;;;;;102.87;48.10;;;;;;;4.82;81.61;97842.14;2247609;79;21602;-83
2022/11/22 07:11:38;;;;;;;94.17;46.27;;;;;;;4.06;83.40;97835.02;2247272;79;20948;-81
2022/11/22 07:14:38;;;;;;;84.67;43.27;;;;;;;3.42;84.68;97833.55;2247080;79;20961;-81
2022/11/22 07:17:38;;;;;;;97.77;42.43;;;;;;;3.14;86.85;97836.30;2247973;79;21343;-81
2022/11/22 07:20:39;;;;;;;113.73;43.83;;;;;;;2.91;87.41;97834.84;2248541;79;20955;-81
2022/11/22 07:23:39;;;;;;;93.00;43.93;;;;;;;2.75;88.62;97835.74;2248352;79;20901;-81
2022/11/22 07:26:40;;;;;;;88.83;44.60;;;;;;;2.66;89.59;97838.49;2247571;79;20948;-81
2022/11/22 07:29:40;;;;;;;79.60;40.00;;;;;;;2.56;89.62;97852.37;2248217;79;20928;-81
2022/11/22 07:32:40;;;;;;;96.83;45.20;;;;;;;2.57;90.45;97854.55;2248024;79;21307;-83
2022/11/22 07:35:41;;;;;;;89.73;43.40;;;;;;;2.55;90.66;97847.19;2247602;79;20955;-85
2022/11/22 07:38:41;;;;;;;79.83;40.27;;;;;;;2.56;90.99;97857.53;2246740;79;21003;-86
2022/11/22 07:41:42;;;;;;;78.70;40.33;;;;;;;2.59;90.84;97859.32;2247336;79;20952;-83
2022/11/22 07:44:42;;;;;;;85.43;43.07;;;;;;;2.65;90.99;97845.77;2247750;79;20884;-83
2022/11/22 07:47:43;;;;;;;82.10;40.63;;;;;;;2.70;91.39;97851.91;2248169;79;21598;-85
2022/11/22 07:50:43;;;;;;;80.07;41.77;;;;;;;2.77;91.95;97852.11;2247420;79;21350;-85
2022/11/22 07:53:43;;;;;;;71.10;41.10;;;;;;;2.82;91.13;97847.95;2248083;79;20881;-86
2022/11/22 07:56:44;;;;;;;69.17;39.30;;;;;;;2.90;91.14;97853.72;2248006;79;21004;-83
2022/11/22 07:59:44;;;;;;;69.27;39.43;;;;;;;2.99;90.96;97862.56;2247862;79;20920;-84
2022/11/22 08:02:45;;;;;;;66.50;38.30;;;;;;;3.10;90.48;97861.55;2248010;79;20924;-85
2022/11/22 08:05:45;;;;;;;63.87;37.77;;;;;;;3.16;90.02;97856.12;2248589;79;20892;-83
2022/11/22 08:08:45;;;;;;;63.80;35.53;;;;;;;3.22;89.94;97864.85;2247423;79;21177;-85
2022/11/22 08:11:46;;;;;;;64.17;36.57;;;;;;;3.30;88.69;97869.78;2249468;79;20964;-82
2022/11/22 08:14:46;;;;;;;59.00;33.53;;;;;;;3.28;88.46;97874.03;2248804;79;20904;-82
2022/11/22 08:17:47;;;;;;;58.93;34.70;;;;;;;3.27;88.25;97874.86;2248508;79;20920;-82
2022/11/22 08:20:47;;;;;;;60.10;34.57;;;;;;;3.25;87.90;97871.38;2248086;79;20928;-82
2022/11/22 08:23:48;;;;;;;60.10;34.17;;;;;;;3.16;87.51;97877.17;2248708;79;21301;-82
2022/11/22 08:26:48;;;;;;;60.00;35.27;;;;;;;3.17;87.76;97872.47;2247854;79;20951;-85
2022/11/22 08:29:48;;;;;;;65.17;34.77;;;;;;;3.15;87.29;97880.17;2247466;79;20932;-82
2022/11/22 08:32:50;;;;;;;59.67;35.77;;;;;;;3.12;87.17;97872.36;2247635;79;20984;-83
2022/11/22 08:35:49;;;;;;;58.80;33.83;;;;;;;3.04;86.59;97875.16;2248717;79;20881;-81
2022/11/22 08:38:50;;;;;;;92.77;37.87;;;;;;;2.99;87.14;97879.73;2248650;79;21007;-81
2022/11/22 08:41:50;;;;;;;62.57;33.83;;;;;;;2.94;86.76;97880.91;2248511;79;20912;-82
2022/11/22 08:44:50;;;;;;;52.60;31.70;;;;;;;3.02;86.94;97887.14;2248485;79;20957;-79
2022/11/22 08:47:51;;;;;;;50.80;30.60;;;;;;;3.05;86.32;97892.79;2247183;79;20928;-82
2022/11/22 08:50:51;;;;;;;51.70;30.50;;;;;;;3.07;86.06;97898.44;2247958;79;21512;-78
2022/11/22 08:53:52;;;;;;;44.93;28.00;;;;;;;3.05;85.67;97896.24;2249414;79;20920;-81
2022/11/22 08:56:52;;;;;;;44.10;27.90;;;;;;;3.12;85.74;97901.14;2248927;79;20964;-82
2022/11/22 08:59:53;;;;;;;41.93;26.50;;;;;;;3.10;85.19;97911.41;2247535;79;20964;-82
2022/11/22 09:02:53;;;;;;;39.20;25.80;;;;;;;3.07;84.69;97919.06;2248467;79;20959;-78
2022/11/22 09:05:53;;;;;;;39.63;26.73;;;;;;;3.00;84.62;97919.74;2247680;79;20952;-84
2022/11/22 09:08:54;;;;;;;49.80;28.30;;;;;;;2.99;84.69;97919.28;2247494;79;21043;-83
2022/11/22 09:11:54;;;;;;;37.57;26.17;;;;;;;3.02;84.82;97915.50;2248877;79;20956;-84
2022/11/22 09:14:55;;;;;;;44.00;27.80;;;;;;;3.04;84.54;97908.67;2248643;79;21324;-84
2022/11/22 09:17:55;;;;;;;43.30;26.67;;;;;;;3.06;84.87;97896.70;2248631;79;20896;-84
2022/11/22 09:20:55;;;;;;;43.70;27.80;;;;;;;3.11;85.09;97902.84;2248738;79;20920;-84
2022/11/22 09:23:56;;;;;;;42.63;27.50;;;;;;;3.18;84.69;97911.20;2248827;79;20952;-83
2022/11/22 09:26:56;;;;;;;50.90;29.87;;;;;;;3.18;84.53;97912.48;2247562;79;21336;-84
2022/11/22 09:29:59;;;;;;;46.17;29.77;;;;;;;3.18;84.53;97912.48;2247947;79;21319;-85
2022/11/22 09:33:00;;;;;;;49.03;30.27;;;;;;;3.20;84.54;97912.52;2248171;79;20944;-85
2022/11/22 09:36:00;;;;;;;42.07;29.03;;;;;;;3.32;84.82;97912.84;2248112;79;20928;-84
2022/11/22 09:39:01;;;;;;;46.23;29.13;;;;;;;3.48;84.68;97914.13;2247489;79;21039;-85
2022/11/22 09:42:03;;;;;;;41.93;26.37;;;;;;;3.55;84.07;97913.44;2248387;79;20913;-84
2022/11/22 09:45:02;;;;;;;47.83;29.57;;;;;;;3.56;83.59;97908.73;2246851;79;20912;-84
2022/11/22 09:48:02;;;;;;;41.20;27.03;;;;;;;3.53;83.30;97903.50;2246301;79;20943;-84
2022/11/22 09:51:02;;;;;;;45.13;28.40;;;;;;;3.57;83.14;97893.70;2246580;79;21382;-84
2022/11/22 09:54:03;;;;;;;42.70;28.80;;;;;;;3.59;82.57;97894.61;2246687;79;21400;-83
2022/11/22 09:57:03;;;;;;;38.37;25.77;;;;;;;3.50;82.35;97892.69;2246643;79;20951;-85
2022/11/22 10:00:04;;;;;;;39.40;26.57;;;;;;;3.51;82.58;97876.37;2246907;79;21273;-83
2022/11/22 10:03:04;;;;;;;43.73;28.67;;;;;;;3.54;82.27;97880.73;2245825;79;20952;-84
2022/11/22 10:06:05;;;;;;;39.20;27.03;;;;;;;3.55;82.52;97876.44;2245398;79;20896;-82
2022/11/22 10:09:06;;;;;;;40.70;26.50;;;;;;;3.58;82.80;97868.77;2245224;79;20995;-84
2022/11/22 10:12:07;;;;;;;41.20;26.47;;;;;;;3.62;82.53;97868.01;2243025;79;20935;-84
2022/11/22 10:15:08;;;;;;;36.80;26.20;;;;;;;3.67;82.21;97871.56;2245557;79;21339;-84
2022/11/22 10:18:10;;;;;;;38.57;25.20;;;;;;;3.70;81.96;97871.22;2245301;79;20913;-85
2022/11/22 10:21:13;;;;;;;43.07;26.67;;;;;;;3.75;81.68;97868.33;2245534;79;20916;-85
2022/11/22 10:24:11;;;;;;;47.03;28.10;;;;;;;3.79;81.60;97875.30;2242530;79;21565;-82
2022/11/22 10:27:11;;;;;;;90.73;29.20;;;;;;;3.88;81.65;97878.51;2245705;79;20931;-82
2022/11/22 10:30:12;;;;;;;42.07;27.47;;;;;;;4.03;81.69;97877.98;2246881;79;20924;-83
2022/11/22 10:33:14;;;;;;;48.20;26.33;;;;;;;4.21;80.92;97871.92;2245501;79;20979;-82
2022/11/22 10:36:14;;;;;;;46.23;28.57;;;;;;;4.33;80.31;97879.92;2243877;79;20905;-82
2022/11/22 10:39:15;;;;;;;109.57;29.37;;;;;;;4.33;79.95;97882.50;2246603;79;20952;-79
2022/11/22 10:42:15;;;;;;;57.47;33.70;;;;;;;4.34;79.74;97882.12;2248121;79;20903;-81
2022/11/22 10:45:16;;;;;;;47.30;30.93;;;;;;;4.29;79.61;97888.45;2246665;79;20897;-80
2022/11/22 10:48:16;;;;;;;49.67;30.77;;;;;;;4.26;80.06;97896.13;2246673;79;20976;-80
2022/11/22 10:51:16;;;;;;;46.93;29.77;;;;;;;4.24;79.75;97899.52;2247987;79;21000;-80
2022/11/22 10:54:17;;;;;;;55.90;29.43;;;;;;;4.05;79.57;97886.62;2247565;79;21238;-81
2022/11/22 10:57:17;;;;;;;48.00;28.60;;;;;;;3.99;80.20;97885.20;2247414;79;21011;-82
2022/11/22 11:00:17;;;;;;;48.73;31.10;;;;;;;3.92;79.89;97884.61;2247195;79;20934;-81
2022/11/22 11:03:18;;;;;;;45.70;28.43;;;;;;;3.75;80.18;97874.78;2246857;79;21351;-82
2022/11/22 11:06:20;;;;;;;50.23;30.43;;;;;;;3.64;80.37;97871.08;2246664;79;20869;-81
2022/11/22 11:09:19;;;;;;;54.70;31.07;;;;;;;3.55;80.49;97866.13;2246724;79;21012;-81
2022/11/22 11:12:19;;;;;;;46.90;29.77;;;;;;;3.54;80.79;97867.83;2246953;79;21289;-81
2022/11/22 11:15:20;;;;;;;75.97;31.00;;;;;;;3.57;80.81;97858.87;2246778;79;20913;-80
2022/11/22 11:18:20;;;;;;;57.13;31.07;;;;;;;3.63;81.22;97862.88;2246494;79;21162;-82
2022/11/22 11:21:24;;;;;;;64.40;31.10;;;;;;;3.71;80.89;97860.06;2246946;79;21376;-84
2022/11/22 11:24:23;;;;;;;163.17;30.20;;;;;;;4.84;100.00;97863.73;2245367;79;20960;-84
2022/11/22 11:27:23;;;;;;;58.60;29.97;;;;;;;9.39;94.79;97835.42;2246433;79;20939;-85
2022/11/22 11:30:24;;;;;;;42.70;28.03;;;;;;;10.68;68.46;97843.08;2246664;79;20920;-83
2022/11/22 11:33:24;;;;;;;45.97;28.97;;;;;;;8.54;65.44;97843.89;2246842;79;21102;-84
2022/11/22 11:36:24;;;;;;;44.23;27.87;;;;;;;6.90;67.66;97844.80;2248126;79;20893;-82
2022/11/22 11:39:25;;;;;;;44.17;28.00;;;;;;;5.65;70.34;97850.91;2247219;79;21011;-83
2022/11/22 11:42:25;;;;;;;43.30;27.33;;;;;;;4.95;72.68;97854.88;2247554;79;21011;-83
2022/11/22 11:45:27;;;;;;;52.20;27.90;;;;;;;4.52;74.33;97845.44;2247950;79;20916;-84
2022/11/22 11:48:27;;;;;;;48.83;30.50;;;;;;;4.27;75.48;97857.84;2246920;79;20920;-83
2022/11/22 11:51:26;;;;;;;68.70;30.20;;;;;;;4.12;76.60;97851.06;2246672;79;21711;-83
2022/11/22 11:54:27;;;;;;;74.43;32.53;;;;;;;4.07;77.47;97842.34;2246452;79;20919;-79
2022/11/22 11:57:27;;;;;;;53.23;31.37;;;;;;;4.04;78.49;97837.98;2240289;79;20969;-84
2022/11/22 12:00:28;;;;;;;48.03;31.23;;;;;;;4.02;78.43;97842.66;2236239;79;21620;-82
2022/11/22 12:03:28;;;;;;;49.50;31.27;;;;;;;4.03;78.86;97834.95;2236075;79;20945;-79
2022/11/22 12:06:28;;;;;;;103.17;33.23;;;;;;;4.12;79.38;97834.27;2236329;79;21320;-81
2022/11/22 12:09:29;;;;;;;51.07;30.47;;;;;;;4.18;79.21;97833.11;2236634;79;20995;-83
2022/11/22 12:12:29;;;;;;;46.23;30.00;;;;;;;4.29;79.16;97826.45;2237307;79;20999;-83
2022/11/22 12:15:30;;;;;;;52.67;29.70;;;;;;;4.36;79.26;97824.47;2237472;79;21394;-83
2022/11/22 12:18:30;;;;;;;49.00;28.63;;;;;;;4.36;79.11;97827.47;2237351;79;20913;-79
2022/11/22 12:21:30;;;;;;;50.03;30.50;;;;;;;4.34;79.15;97817.11;2237892;79;20889;-81
2022/11/22 12:24:31;;;;;;;46.07;27.63;;;;;;;4.37;79.17;97818.88;2236964;80;20904;-82
2022/11/22 12:27:31;;;;;;;50.33;28.60;;;;;;;4.38;79.36;97818.91;2236986;80;20920;-82
2022/11/22 12:30:34;;;;;;;77.47;29.93;;;;;;;4.43;79.52;97823.75;2236827;79;21316;-82
2022/11/22 12:33:34;;;;;;;45.70;28.30;;;;;;;4.50;79.25;97832.49;2241870;79;20932;-83
2022/11/22 12:36:36;;;;;;;42.60;25.43;;;;;;;4.65;81.91;97828.03;2239514;79;20952;-82
2022/11/22 12:39:37;;;;;;;38.80;25.33;;;;;;;4.64;78.55;97834.05;2236312;79;20972;-83
2022/11/22 12:42:39;;;;;;;38.33;25.53;;;;;;;4.30;78.28;97820.44;2240756;79;20912;-82
2022/11/22 12:45:39;;;;;;;43.30;25.93;;;;;;;3.92;79.10;97831.69;2236588;79;20877;-82
2022/11/22 12:48:42;;;;;;;39.80;23.77;;;;;;;3.65;80.22;97822.50;2242599;79;20885;-83
2022/11/22 12:51:42;;;;;;;39.13;25.67;;;;;;;3.50;81.08;97828.59;2237071;79;20944;-83
2022/11/22 12:54:43;;;;;;;40.57;26.37;;;;;;;3.35;81.55;97835.95;2236962;79;20881;-84
2022/11/22 12:57:43;;;;;;;47.77;25.50;;;;;;;3.32;82.02;97834.58;2238152;79;20951;-79
2022/11/22 13:00:43;;;;;;;37.03;22.80;;;;;;;3.20;82.91;97832.16;2239416;79;20905;-83
2022/11/22 13:03:44;;;;;;;45.53;23.97;;;;;;;3.20;82.91;97832.16;2239602;79;20913;-82
2022/11/22 13:06:44;;;;;;;121.63;30.07;;;;;;;3.11;83.46;97831.94;2239878;79;20940;-83
2022/11/22 13:09:45;;;;;;;42.30;25.63;;;;;;;3.06;83.56;97824.50;2240463;79;20972;-84
2022/11/22 13:12:45;;;;;;;70.03;28.33;;;;;;;3.06;84.31;97829.66;2239402;79;21402;-83
2022/11/22 13:15:45;;;;;;;42.33;25.33;;;;;;;3.07;84.19;97821.09;2239448;79;20905;-83
2022/11/22 13:18:46;;;;;;;42.40;26.63;;;;;;;3.08;84.24;97821.96;2238647;79;20901;-83
2022/11/22 13:21:46;;;;;;;43.43;26.27;;;;;;;3.04;84.43;97814.98;2238347;79;21397;-81
2022/11/22 13:24:47;;;;;;;40.60;24.80;;;;;;;3.07;84.76;97817.64;2238401;79;20968;-83
2022/11/22 13:27:47;;;;;;;39.47;24.77;;;;;;;3.12;84.69;97811.77;2238330;79;20916;-83
2022/11/22 13:30:47;;;;;;;45.67;29.40;;;;;;;3.13;84.87;97813.51;2238223;79;20936;-84
2022/11/22 13:33:48;;;;;;;50.57;27.23;;;;;;;3.17;84.71;97805.01;2238135;79;21637;-83
2022/11/22 13:36:48;;;;;;;41.17;25.77;;;;;;;3.26;84.68;97809.52;2238374;79;21008;-83
2022/11/22 13:39:49;;;;;;;37.97;24.30;;;;;;;3.29;84.80;97801.85;2239197;79;21002;-85
2022/11/22 13:42:49;;;;;;;90.47;27.23;;;;;;;3.33;84.67;97800.22;2239322;79;21256;-85
2022/11/22 13:45:50;;;;;;;45.43;24.33;;;;;;;3.23;84.61;97795.26;2239465;79;20917;-83
2022/11/22 13:48:50;;;;;;;107.83;27.33;;;;;;;3.20;84.96;97798.64;2239732;79;20913;-84
2022/11/22 13:51:50;;;;;;;39.90;25.43;;;;;;;3.20;84.96;97798.64;2239252;79;20916;-83
2022/11/22 13:54:57;;;;;;;41.67;24.77;;;;;;;3.19;84.89;97798.59;2239645;79;21348;-82
2022/11/22 13:57:54;;;;;;;41.20;27.00;;;;;;;3.16;85.01;97796.82;2241801;79;20976;-84
2022/11/22 14:00:54;;;;;;;40.23;24.67;;;;;;;3.09;85.09;97787.61;2243225;79;20917;-81
2022/11/22 14:03:55;;;;;;;42.53;25.63;;;;;;;3.02;85.27;97785.72;2243493;79;21390;-83
2022/11/22 14:06:55;;;;;;;50.50;27.53;;;;;;;2.97;85.81;97788.19;2243187;79;21262;-84